sensor_id;sensor_type;location;lat;lon;timestamp;P1;durP1;ratioP1;P2;durP2;ratioP2
7330;SDS011;3706;49.198;7.064;2024-01-10T00:00:07;15.87;;;5.90;;
7330;SDS011;3706;49.198;7.064;2024-01-10T00:02:35;9.00;;;5.73;;
7330;SDS011;3706;49.198;7.064;2024-01-10T00:05:02;8.57;;;5.40;;
7330;SDS011;3706;49.198;7.064;2024-01-10T00:07:29;10.77;;;6.23;;
7330;SDS011;3706;49.198;7.064;2024-01-10T00:09:56;9.50;;;5.53;;
7330;SDS011;3706;49.198;7.064;2024-01-10T00:12:26;9.30;;;5.43;;
7330;SDS011;3706;49.198;7.064;2024-01-10T00:14:58;9.63;;;5.33;;
7330;SDS011;3706;49.198;7.064;2024-01-10T00:17:25;9.47;;;5.73;;
7330;SDS011;3706;49.198;7.064;2024-01-10T00:19:52;13.77;;;5.50;;
7330;SDS011;3706;49.198;7.064;2024-01-10T00:22:19;14.50;;;6.47;;
7330;SDS011;3706;49.198;7.064;2024-01-10T00:24:46;9.83;;;5.77;;
7330;SDS011;3706;49.198;7.064;2024-01-10T00:27:13;10.30;;;6.10;;
7330;SDS011;3706;49.198;7.064;2024-01-10T00:29:41;10.67;;;4.70;;
7330;SDS011;3706;49.198;7.064;2024-01-10T00:32:08;9.37;;;4.87;;
7330;SDS011;3706;49.198;7.064;2024-01-10T00:34:35;9.83;;;5.40;;
7330;SDS011;3706;49.198;7.064;2024-01-10T00:37:02;9.57;;;5.17;;
7330;SDS011;3706;49.198;7.064;2024-01-10T00:39:29;10.07;;;5.43;;
7330;SDS011;3706;49.198;7.064;2024-01-10T00:41:56;8.83;;;5.17;;
7330;SDS011;3706;49.198;7.064;2024-01-10T00:44:23;8.77;;;5.23;;
7330;SDS011;3706;49.198;7.064;2024-01-10T00:46:51;9.87;;;5.40;;
7330;SDS011;3706;49.198;7.064;2024-01-10T00:49:18;13.10;;;6.57;;
7330;SDS011;3706;49.198;7.064;2024-01-10T00:51:45;9.60;;;5.67;;
7330;SDS011;3706;49.198;7.064;2024-01-10T00:54:12;10.93;;;6.03;;
7330;SDS011;3706;49.198;7.064;2024-01-10T00:56:39;8.50;;;5.17;;
7330;SDS011;3706;49.198;7.064;2024-01-10T00:59:09;14.07;;;5.53;;
7330;SDS011;3706;49.198;7.064;2024-01-10T01:01:36;10.20;;;5.10;;
7330;SDS011;3706;49.198;7.064;2024-01-10T01:04:05;10.60;;;5.10;;
7330;SDS011;3706;49.198;7.064;2024-01-10T01:06:31;10.97;;;5.60;;
7330;SDS011;3706;49.198;7.064;2024-01-10T01:08:58;11.23;;;5.77;;
7330;SDS011;3706;49.198;7.064;2024-01-10T01:11:25;7.67;;;4.93;;
7330;SDS011;3706;49.198;7.064;2024-01-10T01:13:52;9.63;;;4.80;;
7330;SDS011;3706;49.198;7.064;2024-01-10T01:16:19;10.37;;;5.37;;
7330;SDS011;3706;49.198;7.064;2024-01-10T01:18:46;13.33;;;5.60;;
7330;SDS011;3706;49.198;7.064;2024-01-10T01:21:14;9.13;;;5.27;;
7330;SDS011;3706;49.198;7.064;2024-01-10T01:23:41;9.10;;;5.43;;
7330;SDS011;3706;49.198;7.064;2024-01-10T01:26:09;8.10;;;4.63;;
7330;SDS011;3706;49.198;7.064;2024-01-10T01:28:37;9.27;;;5.10;;
7330;SDS011;3706;49.198;7.064;2024-01-10T01:31:04;11.37;;;5.60;;
7330;SDS011;3706;49.198;7.064;2024-01-10T01:33:31;11.33;;;4.97;;
7330;SDS011;3706;49.198;7.064;2024-01-10T01:35:58;8.27;;;5.23;;
7330;SDS011;3706;49.198;7.064;2024-01-10T01:38:27;10.27;;;5.47;;
7330;SDS011;3706;49.198;7.064;2024-01-10T01:40:54;11.43;;;5.57;;
7330;SDS011;3706;49.198;7.064;2024-01-10T01:43:21;10.83;;;6.03;;
7330;SDS011;3706;49.198;7.064;2024-01-10T01:45:50;7.30;;;4.80;;
7330;SDS011;3706;49.198;7.064;2024-01-10T01:48:18;9.57;;;5.67;;
7330;SDS011;3706;49.198;7.064;2024-01-10T01:50:46;11.20;;;5.27;;
7330;SDS011;3706;49.198;7.064;2024-01-10T01:53:16;11.70;;;6.30;;
7330;SDS011;3706;49.198;7.064;2024-01-10T01:55:45;10.13;;;5.60;;
7330;SDS011;3706;49.198;7.064;2024-01-10T01:58:12;9.73;;;5.17;;
7330;SDS011;3706;49.198;7.064;2024-01-10T02:00:40;9.80;;;5.53;;
7330;SDS011;3706;49.198;7.064;2024-01-10T02:03:09;11.97;;;6.33;;
7330;SDS011;3706;49.198;7.064;2024-01-10T02:05:36;8.93;;;5.20;;
7330;SDS011;3706;49.198;7.064;2024-01-10T02:08:03;12.27;;;6.23;;
7330;SDS011;3706;49.198;7.064;2024-01-10T02:10:31;11.83;;;6.03;;
7330;SDS011;3706;49.198;7.064;2024-01-10T02:12:59;9.30;;;5.47;;
7330;SDS011;3706;49.198;7.064;2024-01-10T02:15:26;10.80;;;6.27;;
7330;SDS011;3706;49.198;7.064;2024-01-10T02:17:53;12.73;;;6.80;;
7330;SDS011;3706;49.198;7.064;2024-01-10T02:20:23;9.17;;;5.30;;
7330;SDS011;3706;49.198;7.064;2024-01-10T02:22:50;10.67;;;5.57;;
7330;SDS011;3706;49.198;7.064;2024-01-10T02:25:18;12.17;;;6.80;;
7330;SDS011;3706;49.198;7.064;2024-01-10T02:27:46;9.03;;;4.83;;
7330;SDS011;3706;49.198;7.064;2024-01-10T02:30:13;11.70;;;5.80;;
7330;SDS011;3706;49.198;7.064;2024-01-10T02:32:40;8.10;;;5.13;;
7330;SDS011;3706;49.198;7.064;2024-01-10T02:35:07;8.33;;;4.90;;
7330;SDS011;3706;49.198;7.064;2024-01-10T02:37:34;10.97;;;5.87;;
7330;SDS011;3706;49.198;7.064;2024-01-10T02:40:01;10.33;;;5.37;;
7330;SDS011;3706;49.198;7.064;2024-01-10T02:42:31;11.10;;;5.80;;
7330;SDS011;3706;49.198;7.064;2024-01-10T02:44:58;14.33;;;6.13;;
7330;SDS011;3706;49.198;7.064;2024-01-10T02:47:25;20.70;;;10.73;;
7330;SDS011;3706;49.198;7.064;2024-01-10T02:49:54;12.90;;;7.30;;
7330;SDS011;3706;49.198;7.064;2024-01-10T02:52:21;11.73;;;6.40;;
7330;SDS011;3706;49.198;7.064;2024-01-10T02:54:48;21.33;;;11.57;;
7330;SDS011;3706;49.198;7.064;2024-01-10T02:57:14;15.37;;;8.57;;
7330;SDS011;3706;49.198;7.064;2024-01-10T02:59:43;12.43;;;6.20;;
7330;SDS011;3706;49.198;7.064;2024-01-10T03:02:10;11.73;;;6.10;;
7330;SDS011;3706;49.198;7.064;2024-01-10T03:04:37;15.03;;;6.67;;
7330;SDS011;3706;49.198;7.064;2024-01-10T03:07:04;12.13;;;6.53;;
7330;SDS011;3706;49.198;7.064;2024-01-10T03:09:31;10.97;;;5.73;;
7330;SDS011;3706;49.198;7.064;2024-01-10T03:11:58;9.30;;;6.07;;
7330;SDS011;3706;49.198;7.064;2024-01-10T03:14:25;10.97;;;5.23;;
7330;SDS011;3706;49.198;7.064;2024-01-10T03:16:53;10.23;;;5.80;;
7330;SDS011;3706;49.198;7.064;2024-01-10T03:19:20;12.53;;;6.83;;
7330;SDS011;3706;49.198;7.064;2024-01-10T03:21:47;12.73;;;6.33;;
7330;SDS011;3706;49.198;7.064;2024-01-10T03:24:14;9.37;;;5.00;;
7330;SDS011;3706;49.198;7.064;2024-01-10T03:26:42;13.07;;;6.87;;
7330;SDS011;3706;49.198;7.064;2024-01-10T03:29:09;9.77;;;6.13;;
7330;SDS011;3706;49.198;7.064;2024-01-10T03:31:36;12.03;;;6.17;;
7330;SDS011;3706;49.198;7.064;2024-01-10T03:34:04;10.83;;;6.23;;
7330;SDS011;3706;49.198;7.064;2024-01-10T03:36:31;14.30;;;6.50;;
7330;SDS011;3706;49.198;7.064;2024-01-10T03:39:00;12.53;;;6.27;;
7330;SDS011;3706;49.198;7.064;2024-01-10T03:41:27;11.53;;;6.50;;
7330;SDS011;3706;49.198;7.064;2024-01-10T03:43:54;17.10;;;7.10;;
7330;SDS011;3706;49.198;7.064;2024-01-10T03:46:20;10.13;;;5.47;;
7330;SDS011;3706;49.198;7.064;2024-01-10T03:48:47;12.23;;;6.27;;
7330;SDS011;3706;49.198;7.064;2024-01-10T03:51:16;13.70;;;6.90;;
7330;SDS011;3706;49.198;7.064;2024-01-10T03:53:46;12.03;;;5.97;;
7330;SDS011;3706;49.198;7.064;2024-01-10T03:56:14;12.27;;;6.57;;
7330;SDS011;3706;49.198;7.064;2024-01-10T03:58:41;13.57;;;6.67;;
7330;SDS011;3706;49.198;7.064;2024-01-10T04:01:08;12.63;;;6.23;;
7330;SDS011;3706;49.198;7.064;2024-01-10T04:03:35;16.30;;;7.37;;
7330;SDS011;3706;49.198;7.064;2024-01-10T04:06:03;11.83;;;6.57;;
7330;SDS011;3706;49.198;7.064;2024-01-10T04:08:32;10.17;;;5.90;;
7330;SDS011;3706;49.198;7.064;2024-01-10T04:10:59;13.83;;;6.07;;
7330;SDS011;3706;49.198;7.064;2024-01-10T04:13:25;7.23;;;4.43;;
7330;SDS011;3706;49.198;7.064;2024-01-10T04:15:52;11.47;;;5.97;;
7330;SDS011;3706;49.198;7.064;2024-01-10T04:18:19;11.63;;;6.47;;
7330;SDS011;3706;49.198;7.064;2024-01-10T04:20:46;14.03;;;7.70;;
7330;SDS011;3706;49.198;7.064;2024-01-10T04:23:14;13.90;;;6.50;;
7330;SDS011;3706;49.198;7.064;2024-01-10T04:25:42;12.00;;;6.13;;
7330;SDS011;3706;49.198;7.064;2024-01-10T04:28:09;12.10;;;6.23;;
7330;SDS011;3706;49.198;7.064;2024-01-10T04:30:36;14.17;;;6.50;;
7330;SDS011;3706;49.198;7.064;2024-01-10T04:33:04;12.83;;;6.87;;
7330;SDS011;3706;49.198;7.064;2024-01-10T04:35:31;12.73;;;6.70;;
7330;SDS011;3706;49.198;7.064;2024-01-10T04:37:58;13.23;;;6.57;;
7330;SDS011;3706;49.198;7.064;2024-01-10T04:40:24;17.13;;;6.70;;
7330;SDS011;3706;49.198;7.064;2024-01-10T04:42:53;11.60;;;6.60;;
7330;SDS011;3706;49.198;7.064;2024-01-10T04:45:20;16.57;;;7.07;;
7330;SDS011;3706;49.198;7.064;2024-01-10T04:47:46;10.53;;;6.33;;
7330;SDS011;3706;49.198;7.064;2024-01-10T04:50:14;9.97;;;5.77;;
7330;SDS011;3706;49.198;7.064;2024-01-10T04:52:41;13.67;;;6.53;;
7330;SDS011;3706;49.198;7.064;2024-01-10T04:55:08;11.37;;;6.67;;
7330;SDS011;3706;49.198;7.064;2024-01-10T04:57:36;15.93;;;6.83;;
7330;SDS011;3706;49.198;7.064;2024-01-10T05:00:06;14.40;;;6.97;;
7330;SDS011;3706;49.198;7.064;2024-01-10T05:02:33;12.83;;;6.60;;
7330;SDS011;3706;49.198;7.064;2024-01-10T05:05:00;12.93;;;6.17;;
7330;SDS011;3706;49.198;7.064;2024-01-10T05:07:29;11.13;;;5.60;;
7330;SDS011;3706;49.198;7.064;2024-01-10T05:09:56;12.30;;;6.97;;
7330;SDS011;3706;49.198;7.064;2024-01-10T05:12:23;16.43;;;7.53;;
7330;SDS011;3706;49.198;7.064;2024-01-10T05:14:50;15.50;;;7.50;;
7330;SDS011;3706;49.198;7.064;2024-01-10T05:17:18;12.47;;;6.87;;
7330;SDS011;3706;49.198;7.064;2024-01-10T05:19:45;12.83;;;6.60;;
7330;SDS011;3706;49.198;7.064;2024-01-10T05:22:12;12.87;;;6.73;;
7330;SDS011;3706;49.198;7.064;2024-01-10T05:24:39;13.77;;;6.77;;
7330;SDS011;3706;49.198;7.064;2024-01-10T05:27:06;11.10;;;6.37;;
7330;SDS011;3706;49.198;7.064;2024-01-10T05:29:33;13.87;;;6.67;;
7330;SDS011;3706;49.198;7.064;2024-01-10T05:32:00;13.83;;;7.13;;
7330;SDS011;3706;49.198;7.064;2024-01-10T05:34:28;12.93;;;7.03;;
7330;SDS011;3706;49.198;7.064;2024-01-10T05:36:55;11.90;;;6.50;;
7330;SDS011;3706;49.198;7.064;2024-01-10T05:39:22;14.87;;;6.93;;
7330;SDS011;3706;49.198;7.064;2024-01-10T05:41:49;12.23;;;6.33;;
7330;SDS011;3706;49.198;7.064;2024-01-10T05:44:16;13.60;;;6.73;;
7330;SDS011;3706;49.198;7.064;2024-01-10T05:46:43;13.90;;;7.20;;
7330;SDS011;3706;49.198;7.064;2024-01-10T05:49:10;14.10;;;6.63;;
7330;SDS011;3706;49.198;7.064;2024-01-10T05:51:38;15.23;;;7.20;;
7330;SDS011;3706;49.198;7.064;2024-01-10T05:54:05;13.03;;;7.73;;
7330;SDS011;3706;49.198;7.064;2024-01-10T05:56:33;14.93;;;6.87;;
7330;SDS011;3706;49.198;7.064;2024-01-10T05:58:59;14.80;;;7.50;;
7330;SDS011;3706;49.198;7.064;2024-01-10T06:01:27;11.63;;;7.07;;
7330;SDS011;3706;49.198;7.064;2024-01-10T06:03:54;13.03;;;7.23;;
7330;SDS011;3706;49.198;7.064;2024-01-10T06:06:21;13.33;;;6.90;;
7330;SDS011;3706;49.198;7.064;2024-01-10T06:08:50;12.53;;;6.23;;
7330;SDS011;3706;49.198;7.064;2024-01-10T06:11:17;14.77;;;6.97;;
7330;SDS011;3706;49.198;7.064;2024-01-10T06:13:44;13.50;;;6.93;;
7330;SDS011;3706;49.198;7.064;2024-01-10T06:16:11;14.20;;;7.13;;
7330;SDS011;3706;49.198;7.064;2024-01-10T06:18:38;13.50;;;6.63;;
7330;SDS011;3706;49.198;7.064;2024-01-10T06:21:05;14.43;;;7.33;;
7330;SDS011;3706;49.198;7.064;2024-01-10T06:23:32;13.67;;;7.07;;
7330;SDS011;3706;49.198;7.064;2024-01-10T06:26:01;12.80;;;7.10;;
7330;SDS011;3706;49.198;7.064;2024-01-10T06:28:28;12.73;;;7.07;;
7330;SDS011;3706;49.198;7.064;2024-01-10T06:30:55;10.33;;;5.83;;
7330;SDS011;3706;49.198;7.064;2024-01-10T06:33:22;10.13;;;5.70;;
7330;SDS011;3706;49.198;7.064;2024-01-10T06:35:50;31.37;;;15.97;;
7330;SDS011;3706;49.198;7.064;2024-01-10T06:38:18;15.27;;;7.53;;
7330;SDS011;3706;49.198;7.064;2024-01-10T06:40:47;13.93;;;7.90;;
7330;SDS011;3706;49.198;7.064;2024-01-10T06:43:17;24.53;;;11.00;;
7330;SDS011;3706;49.198;7.064;2024-01-10T06:45:44;40.50;;;19.17;;
7330;SDS011;3706;49.198;7.064;2024-01-10T06:48:11;14.40;;;6.97;;
7330;SDS011;3706;49.198;7.064;2024-01-10T06:50:38;18.03;;;7.97;;
7330;SDS011;3706;49.198;7.064;2024-01-10T06:53:05;16.50;;;8.80;;
7330;SDS011;3706;49.198;7.064;2024-01-10T06:55:32;11.97;;;6.97;;
7330;SDS011;3706;49.198;7.064;2024-01-10T06:57:59;12.30;;;6.60;;
7330;SDS011;3706;49.198;7.064;2024-01-10T07:00:28;11.80;;;6.60;;
7330;SDS011;3706;49.198;7.064;2024-01-10T07:02:55;13.97;;;7.83;;
7330;SDS011;3706;49.198;7.064;2024-01-10T07:05:22;12.73;;;7.10;;
7330;SDS011;3706;49.198;7.064;2024-01-10T07:07:49;13.57;;;7.33;;
7330;SDS011;3706;49.198;7.064;2024-01-10T07:10:16;14.47;;;6.63;;
7330;SDS011;3706;49.198;7.064;2024-01-10T07:12:43;14.23;;;7.60;;
7330;SDS011;3706;49.198;7.064;2024-01-10T07:15:10;14.37;;;7.33;;
7330;SDS011;3706;49.198;7.064;2024-01-10T07:17:39;12.13;;;6.30;;
7330;SDS011;3706;49.198;7.064;2024-01-10T07:20:06;18.07;;;8.60;;
7330;SDS011;3706;49.198;7.064;2024-01-10T07:22:36;13.50;;;7.00;;
7330;SDS011;3706;49.198;7.064;2024-01-10T07:25:06;12.53;;;6.50;;
7330;SDS011;3706;49.198;7.064;2024-01-10T07:27:34;14.33;;;7.73;;
7330;SDS011;3706;49.198;7.064;2024-01-10T07:30:02;13.77;;;7.40;;
7330;SDS011;3706;49.198;7.064;2024-01-10T07:32:35;17.37;;;7.90;;
7330;SDS011;3706;49.198;7.064;2024-01-10T07:35:04;15.17;;;7.83;;
7330;SDS011;3706;49.198;7.064;2024-01-10T07:37:34;16.17;;;8.47;;
7330;SDS011;3706;49.198;7.064;2024-01-10T07:40:01;17.53;;;8.83;;
7330;SDS011;3706;49.198;7.064;2024-01-10T07:42:30;17.50;;;8.50;;
7330;SDS011;3706;49.198;7.064;2024-01-10T07:44:57;13.77;;;7.93;;
7330;SDS011;3706;49.198;7.064;2024-01-10T07:47:24;18.67;;;8.33;;
7330;SDS011;3706;49.198;7.064;2024-01-10T07:49:51;12.40;;;6.20;;
7330;SDS011;3706;49.198;7.064;2024-01-10T07:52:19;13.60;;;7.47;;
7330;SDS011;3706;49.198;7.064;2024-01-10T07:54:46;17.47;;;8.83;;
7330;SDS011;3706;49.198;7.064;2024-01-10T07:57:13;13.97;;;7.40;;
7330;SDS011;3706;49.198;7.064;2024-01-10T07:59:43;16.10;;;6.93;;
7330;SDS011;3706;49.198;7.064;2024-01-10T08:02:10;15.60;;;7.70;;
7330;SDS011;3706;49.198;7.064;2024-01-10T08:04:37;12.93;;;7.07;;
7330;SDS011;3706;49.198;7.064;2024-01-10T08:07:04;14.57;;;8.10;;
7330;SDS011;3706;49.198;7.064;2024-01-10T08:09:32;16.70;;;7.63;;
7330;SDS011;3706;49.198;7.064;2024-01-10T08:12:00;15.87;;;7.30;;
7330;SDS011;3706;49.198;7.064;2024-01-10T08:14:26;14.40;;;7.10;;
7330;SDS011;3706;49.198;7.064;2024-01-10T08:16:53;15.80;;;7.40;;
7330;SDS011;3706;49.198;7.064;2024-01-10T08:19:23;18.47;;;8.83;;
7330;SDS011;3706;49.198;7.064;2024-01-10T08:21:51;11.27;;;6.97;;
7330;SDS011;3706;49.198;7.064;2024-01-10T08:24:18;14.47;;;7.30;;
7330;SDS011;3706;49.198;7.064;2024-01-10T08:26:47;14.43;;;8.67;;
7330;SDS011;3706;49.198;7.064;2024-01-10T08:29:16;18.07;;;8.97;;
7330;SDS011;3706;49.198;7.064;2024-01-10T08:31:44;13.00;;;6.93;;
7330;SDS011;3706;49.198;7.064;2024-01-10T08:34:11;15.77;;;8.37;;
7330;SDS011;3706;49.198;7.064;2024-01-10T08:36:38;13.73;;;7.50;;
7330;SDS011;3706;49.198;7.064;2024-01-10T08:39:05;18.90;;;8.70;;
7330;SDS011;3706;49.198;7.064;2024-01-10T08:41:32;12.03;;;6.93;;
7330;SDS011;3706;49.198;7.064;2024-01-10T08:44:07;12.40;;;7.40;;
7330;SDS011;3706;49.198;7.064;2024-01-10T08:47:06;18.67;;;8.67;;
7330;SDS011;3706;49.198;7.064;2024-01-10T08:49:33;15.73;;;8.43;;
7330;SDS011;3706;49.198;7.064;2024-01-10T08:52:01;14.17;;;8.47;;
7330;SDS011;3706;49.198;7.064;2024-01-10T08:54:58;15.63;;;7.40;;
7330;SDS011;3706;49.198;7.064;2024-01-10T09:03:38;15.43;;;8.40;;
7330;SDS011;3706;49.198;7.064;2024-01-10T09:06:22;17.30;;;8.70;;
7330;SDS011;3706;49.198;7.064;2024-01-10T09:08:56;12.00;;;6.87;;
7330;SDS011;3706;49.198;7.064;2024-01-10T09:11:23;21.33;;;8.77;;
7330;SDS011;3706;49.198;7.064;2024-01-10T09:13:50;19.57;;;8.77;;
7330;SDS011;3706;49.198;7.064;2024-01-10T09:16:18;12.97;;;7.97;;
7330;SDS011;3706;49.198;7.064;2024-01-10T09:18:49;16.07;;;8.73;;
7330;SDS011;3706;49.198;7.064;2024-01-10T09:21:25;15.97;;;9.10;;
7330;SDS011;3706;49.198;7.064;2024-01-10T09:23:58;16.77;;;8.53;;
7330;SDS011;3706;49.198;7.064;2024-01-10T09:26:35;21.67;;;9.43;;
7330;SDS011;3706;49.198;7.064;2024-01-10T09:29:28;13.27;;;7.70;;
7330;SDS011;3706;49.198;7.064;2024-01-10T09:32:20;10.80;;;6.13;;
7330;SDS011;3706;49.198;7.064;2024-01-10T09:34:48;14.47;;;8.47;;
7330;SDS011;3706;49.198;7.064;2024-01-10T09:37:15;15.57;;;8.93;;
7330;SDS011;3706;49.198;7.064;2024-01-10T09:39:42;13.97;;;8.07;;
7330;SDS011;3706;49.198;7.064;2024-01-10T09:42:09;16.87;;;8.60;;
7330;SDS011;3706;49.198;7.064;2024-01-10T09:44:36;15.57;;;8.07;;
7330;SDS011;3706;49.198;7.064;2024-01-10T09:47:04;14.97;;;7.87;;
7330;SDS011;3706;49.198;7.064;2024-01-10T09:49:31;16.13;;;6.73;;
7330;SDS011;3706;49.198;7.064;2024-01-10T09:52:01;16.63;;;9.43;;
7330;SDS011;3706;49.198;7.064;2024-01-10T09:54:30;18.87;;;7.67;;
7330;SDS011;3706;49.198;7.064;2024-01-10T09:56:58;14.97;;;8.70;;
7330;SDS011;3706;49.198;7.064;2024-01-10T09:59:25;18.07;;;9.27;;
7330;SDS011;3706;49.198;7.064;2024-01-10T10:01:52;14.83;;;8.03;;
7330;SDS011;3706;49.198;7.064;2024-01-10T10:04:19;13.90;;;7.60;;
7330;SDS011;3706;49.198;7.064;2024-01-10T10:06:51;17.47;;;7.73;;
7330;SDS011;3706;49.198;7.064;2024-01-10T10:09:27;14.93;;;8.50;;
7330;SDS011;3706;49.198;7.064;2024-01-10T10:18:55;15.70;;;8.13;;
7330;SDS011;3706;49.198;7.064;2024-01-10T10:21:41;17.43;;;9.47;;
7330;SDS011;3706;49.198;7.064;2024-01-10T10:24:10;16.10;;;8.30;;
7330;SDS011;3706;49.198;7.064;2024-01-10T10:26:42;15.07;;;8.80;;
7330;SDS011;3706;49.198;7.064;2024-01-10T10:29:17;19.30;;;8.97;;
7330;SDS011;3706;49.198;7.064;2024-01-10T10:31:46;17.83;;;9.43;;
7330;SDS011;3706;49.198;7.064;2024-01-10T10:34:14;14.83;;;8.50;;
7330;SDS011;3706;49.198;7.064;2024-01-10T10:36:47;16.13;;;8.87;;
7330;SDS011;3706;49.198;7.064;2024-01-10T10:39:17;16.93;;;9.87;;
7330;SDS011;3706;49.198;7.064;2024-01-10T10:41:43;17.53;;;9.57;;
7330;SDS011;3706;49.198;7.064;2024-01-10T10:44:15;14.83;;;8.60;;
7330;SDS011;3706;49.198;7.064;2024-01-10T10:46:47;13.23;;;7.70;;
7330;SDS011;3706;49.198;7.064;2024-01-10T10:49:18;18.50;;;10.33;;
7330;SDS011;3706;49.198;7.064;2024-01-10T10:51:54;15.80;;;8.53;;
7330;SDS011;3706;49.198;7.064;2024-01-10T10:54:25;11.40;;;6.87;;
7330;SDS011;3706;49.198;7.064;2024-01-10T10:56:55;16.13;;;8.70;;
7330;SDS011;3706;49.198;7.064;2024-01-10T10:59:25;17.37;;;9.17;;
7330;SDS011;3706;49.198;7.064;2024-01-10T11:01:53;22.57;;;9.87;;
7330;SDS011;3706;49.198;7.064;2024-01-10T11:04:21;18.00;;;8.73;;
7330;SDS011;3706;49.198;7.064;2024-01-10T11:06:49;12.00;;;7.27;;
7330;SDS011;3706;49.198;7.064;2024-01-10T11:09:17;17.57;;;9.37;;
7330;SDS011;3706;49.198;7.064;2024-01-10T11:11:56;18.17;;;8.77;;
7330;SDS011;3706;49.198;7.064;2024-01-10T11:14:38;18.90;;;9.73;;
7330;SDS011;3706;49.198;7.064;2024-01-10T11:17:26;19.17;;;10.30;;
7330;SDS011;3706;49.198;7.064;2024-01-10T11:20:17;18.83;;;10.03;;
7330;SDS011;3706;49.198;7.064;2024-01-10T11:23:21;18.67;;;9.40;;
7330;SDS011;3706;49.198;7.064;2024-01-10T11:26:02;12.93;;;7.87;;
7330;SDS011;3706;49.198;7.064;2024-01-10T11:28:31;15.97;;;8.60;;
7330;SDS011;3706;49.198;7.064;2024-01-10T11:30:58;20.43;;;9.27;;
7330;SDS011;3706;49.198;7.064;2024-01-10T11:33:30;21.30;;;11.13;;
7330;SDS011;3706;49.198;7.064;2024-01-10T11:36:16;17.17;;;10.03;;
7330;SDS011;3706;49.198;7.064;2024-01-10T11:38:57;16.97;;;9.70;;
7330;SDS011;3706;49.198;7.064;2024-01-10T11:41:27;15.20;;;7.30;;
7330;SDS011;3706;49.198;7.064;2024-01-10T11:47:07;14.70;;;8.73;;
7330;SDS011;3706;49.198;7.064;2024-01-10T11:49:34;18.77;;;10.13;;
7330;SDS011;3706;49.198;7.064;2024-01-10T11:52:01;20.47;;;10.27;;
7330;SDS011;3706;49.198;7.064;2024-01-10T11:54:38;21.40;;;10.23;;
7330;SDS011;3706;49.198;7.064;2024-01-10T11:57:21;15.73;;;9.57;;
7330;SDS011;3706;49.198;7.064;2024-01-10T11:59:58;18.20;;;10.03;;
7330;SDS011;3706;49.198;7.064;2024-01-10T12:02:32;16.63;;;7.27;;
7330;SDS011;3706;49.198;7.064;2024-01-10T12:04:59;20.13;;;10.43;;
7330;SDS011;3706;49.198;7.064;2024-01-10T12:07:30;19.23;;;9.63;;
7330;SDS011;3706;49.198;7.064;2024-01-10T12:10:02;10.13;;;6.37;;
7330;SDS011;3706;49.198;7.064;2024-01-10T12:12:30;11.93;;;5.90;;
7330;SDS011;3706;49.198;7.064;2024-01-10T12:15:10;18.93;;;10.23;;
7330;SDS011;3706;49.198;7.064;2024-01-10T12:17:42;15.97;;;8.33;;
7330;SDS011;3706;49.198;7.064;2024-01-10T12:20:09;14.37;;;8.17;;
7330;SDS011;3706;49.198;7.064;2024-01-10T12:22:39;21.53;;;10.20;;
7330;SDS011;3706;49.198;7.064;2024-01-10T12:28:55;15.93;;;8.73;;
7330;SDS011;3706;49.198;7.064;2024-01-10T12:31:27;17.20;;;9.17;;
7330;SDS011;3706;49.198;7.064;2024-01-10T12:33:56;19.40;;;9.73;;
7330;SDS011;3706;49.198;7.064;2024-01-10T12:36:25;13.37;;;8.23;;
7330;SDS011;3706;49.198;7.064;2024-01-10T12:38:56;16.23;;;8.47;;
7330;SDS011;3706;49.198;7.064;2024-01-10T12:41:23;17.47;;;9.40;;
7330;SDS011;3706;49.198;7.064;2024-01-10T12:43:51;19.23;;;10.07;;
7330;SDS011;3706;49.198;7.064;2024-01-10T12:46:20;15.03;;;8.90;;
7330;SDS011;3706;49.198;7.064;2024-01-10T12:48:58;15.77;;;8.90;;
7330;SDS011;3706;49.198;7.064;2024-01-10T12:51:26;17.80;;;9.67;;
7330;SDS011;3706;49.198;7.064;2024-01-10T12:53:54;17.23;;;10.27;;
7330;SDS011;3706;49.198;7.064;2024-01-10T12:56:23;18.07;;;10.00;;
7330;SDS011;3706;49.198;7.064;2024-01-10T12:58:51;20.13;;;10.50;;
7330;SDS011;3706;49.198;7.064;2024-01-10T13:01:17;23.47;;;9.57;;
7330;SDS011;3706;49.198;7.064;2024-01-10T13:03:45;19.00;;;9.90;;
7330;SDS011;3706;49.198;7.064;2024-01-10T13:06:16;19.37;;;9.63;;
7330;SDS011;3706;49.198;7.064;2024-01-10T13:08:47;21.40;;;11.60;;
7330;SDS011;3706;49.198;7.064;2024-01-10T13:11:15;13.90;;;6.37;;
7330;SDS011;3706;49.198;7.064;2024-01-10T13:13:45;16.67;;;8.50;;
7330;SDS011;3706;49.198;7.064;2024-01-10T13:16:13;17.70;;;9.53;;
7330;SDS011;3706;49.198;7.064;2024-01-10T13:18:40;17.33;;;9.87;;
7330;SDS011;3706;49.198;7.064;2024-01-10T13:21:07;18.03;;;10.37;;
7330;SDS011;3706;49.198;7.064;2024-01-10T13:23:37;21.77;;;9.90;;
7330;SDS011;3706;49.198;7.064;2024-01-10T13:26:04;18.23;;;10.43;;
7330;SDS011;3706;49.198;7.064;2024-01-10T13:28:32;17.53;;;9.77;;
7330;SDS011;3706;49.198;7.064;2024-01-10T13:31:00;16.63;;;9.67;;
7330;SDS011;3706;49.198;7.064;2024-01-10T13:33:31;15.20;;;8.50;;
7330;SDS011;3706;49.198;7.064;2024-01-10T13:36:22;16.70;;;9.80;;
7330;SDS011;3706;49.198;7.064;2024-01-10T13:38:59;17.57;;;8.27;;
7330;SDS011;3706;49.198;7.064;2024-01-10T13:41:40;17.17;;;9.30;;
7330;SDS011;3706;49.198;7.064;2024-01-10T13:44:13;16.77;;;9.53;;
7330;SDS011;3706;49.198;7.064;2024-01-10T13:46:50;17.27;;;9.43;;
7330;SDS011;3706;49.198;7.064;2024-01-10T13:49:39;12.70;;;7.00;;
7330;SDS011;3706;49.198;7.064;2024-01-10T13:52:11;14.20;;;7.63;;
7330;SDS011;3706;49.198;7.064;2024-01-10T13:54:44;14.83;;;8.90;;
7330;SDS011;3706;49.198;7.064;2024-01-10T13:57:11;9.00;;;4.63;;
7330;SDS011;3706;49.198;7.064;2024-01-10T13:59:38;14.20;;;8.37;;
7330;SDS011;3706;49.198;7.064;2024-01-10T14:02:06;16.17;;;9.73;;
7330;SDS011;3706;49.198;7.064;2024-01-10T14:04:39;17.10;;;9.87;;
7330;SDS011;3706;49.198;7.064;2024-01-10T14:07:07;14.90;;;8.90;;
7330;SDS011;3706;49.198;7.064;2024-01-10T14:09:35;17.97;;;9.57;;
7330;SDS011;3706;49.198;7.064;2024-01-10T14:12:07;16.10;;;9.40;;
7330;SDS011;3706;49.198;7.064;2024-01-10T14:14:34;15.67;;;9.30;;
7330;SDS011;3706;49.198;7.064;2024-01-10T14:17:01;18.43;;;9.43;;
7330;SDS011;3706;49.198;7.064;2024-01-10T14:19:32;15.13;;;8.73;;
7330;SDS011;3706;49.198;7.064;2024-01-10T14:25:37;13.80;;;7.77;;
7330;SDS011;3706;49.198;7.064;2024-01-10T14:28:10;18.87;;;9.70;;
7330;SDS011;3706;49.198;7.064;2024-01-10T14:30:40;18.67;;;10.20;;
7330;SDS011;3706;49.198;7.064;2024-01-10T14:33:16;18.10;;;10.67;;
7330;SDS011;3706;49.198;7.064;2024-01-10T14:35:44;15.10;;;9.27;;
7330;SDS011;3706;49.198;7.064;2024-01-10T14:38:11;15.50;;;9.37;;
7330;SDS011;3706;49.198;7.064;2024-01-10T14:40:47;19.07;;;10.73;;
7330;SDS011;3706;49.198;7.064;2024-01-10T14:43:23;19.87;;;10.00;;
7330;SDS011;3706;49.198;7.064;2024-01-10T14:46:09;20.37;;;10.43;;
7330;SDS011;3706;49.198;7.064;2024-01-10T14:48:36;18.13;;;10.73;;
7330;SDS011;3706;49.198;7.064;2024-01-10T14:51:03;20.70;;;10.63;;
7330;SDS011;3706;49.198;7.064;2024-01-10T14:53:37;17.37;;;9.77;;
7330;SDS011;3706;49.198;7.064;2024-01-10T14:56:07;15.73;;;9.23;;
7330;SDS011;3706;49.198;7.064;2024-01-10T14:58:36;17.77;;;9.33;;
7330;SDS011;3706;49.198;7.064;2024-01-10T15:01:06;19.80;;;10.07;;
7330;SDS011;3706;49.198;7.064;2024-01-10T15:03:37;21.93;;;10.00;;
7330;SDS011;3706;49.198;7.064;2024-01-10T15:09:24;20.87;;;10.13;;
7330;SDS011;3706;49.198;7.064;2024-01-10T15:11:51;19.03;;;9.93;;
7330;SDS011;3706;49.198;7.064;2024-01-10T15:14:21;16.27;;;9.57;;
7330;SDS011;3706;49.198;7.064;2024-01-10T15:16:52;20.33;;;9.73;;
7330;SDS011;3706;49.198;7.064;2024-01-10T15:19:21;17.80;;;9.40;;
7330;SDS011;3706;49.198;7.064;2024-01-10T15:21:48;19.23;;;9.43;;
7330;SDS011;3706;49.198;7.064;2024-01-10T15:24:17;22.17;;;10.97;;
7330;SDS011;3706;49.198;7.064;2024-01-10T15:26:49;18.57;;;10.97;;
7330;SDS011;3706;49.198;7.064;2024-01-10T15:29:17;23.77;;;11.70;;
7330;SDS011;3706;49.198;7.064;2024-01-10T15:32:02;17.97;;;10.33;;
7330;SDS011;3706;49.198;7.064;2024-01-10T15:34:29;21.30;;;11.07;;
7330;SDS011;3706;49.198;7.064;2024-01-10T15:36:56;20.53;;;11.00;;
7330;SDS011;3706;49.198;7.064;2024-01-10T15:39:23;25.27;;;13.93;;